Time;durP1;ratioP1;P1;durP2;ratioP2;P2;SDS_P1;SDS_P2;PMS_P1;PMS_P2;Temp;Humidity;BMP_temperature;BMP_pressure;BME280_temperature;BME280_humidity;BME280_pressure;Samples;Min_cycle;Max_cycle;Signal;HPM_P1;HPM_P2
2022/05/10 00:03:41;;;;;;;15.30;12.32;;;11.80;99.90;;;;;;7362853;32;20119;-60
2022/05/10 00:07:42;;;;;;;15.48;13.32;;;11.80;99.90;;;;;;7361519;32;20142;-59
2022/05/10 00:11:44;;;;;;;13.93;12.40;;;11.80;99.90;;;;;;7360638;32;20122;-61
2022/05/10 00:15:47;;;;;;;14.40;12.05;;;11.70;99.90;;;;;;7361490;32;20616;-60
2022/05/10 00:19:49;;;;;;;13.15;11.75;;;11.70;99.90;;;;;;7351104;32;20217;-60
2022/05/10 00:23:52;;;;;;;16.50;11.93;;;11.70;99.90;;;;;;7361875;32;20111;-60
2022/05/10 00:27:54;;;;;;;15.00;12.20;;;11.70;99.90;;;;;;7355936;32;20107;-60
2022/05/10 00:31:56;;;;;;;15.20;12.43;;;11.70;99.90;;;;;;7354962;32;20214;-60
2022/05/10 00:35:59;;;;;;;13.10;11.30;;;11.70;99.90;;;;;;7358727;32;22357;-60
2022/05/10 00:40:00;;;;;;;16.73;11.90;;;11.80;99.90;;;;;;7353542;32;20103;-60
2022/05/10 00:44:13;;;;;;;17.02;12.30;;;11.80;99.90;;;;;;7369426;32;20129;-60
2022/05/10 00:48:25;;;;;;;12.95;11.50;;;11.80;99.90;;;;;;7358555;32;20209;-61
2022/05/10 00:52:48;;;;;;;12.95;10.60;;;11.80;99.90;;;;;;7358809;32;20245;-59
2022/05/10 00:57:19;;;;;;;13.48;11.10;;;11.80;99.90;;;;;;7356112;32;20095;-61
2022/05/10 01:01:28;;;;;;;13.02;11.48;;;11.80;99.90;;;;;;7344516;32;20137;-60
2022/05/10 01:06:03;;;;;;;14.77;11.55;;;11.70;99.90;;;;;;7357955;32;20186;-60
2022/05/10 01:10:23;;;;;;;12.80;11.50;;;11.80;99.90;;;;;;7356289;32;20752;-60
2022/05/10 01:14:50;;;;;;;11.77;10.50;;;11.80;99.90;;;;;;7363508;32;20129;-61
2022/05/10 01:18:53;;;;;;;11.48;10.13;;;11.90;99.90;;;;;;7357779;32;20106;-61
2022/05/10 01:23:27;;;;;;;11.75;10.63;;;11.90;99.90;;;;;;7355065;32;20425;-61
2022/05/10 01:27:48;;;;;;;11.85;9.93;;;11.90;99.90;;;;;;7356461;32;20103;-61
2022/05/10 01:36:41;;;;;;;12.05;10.25;;;11.80;99.90;;;;;;7354945;32;20717;-60
2022/05/10 01:40:47;;;;;;;10.50;9.43;;;11.80;99.90;;;;;;7349532;32;20578;-59
2022/05/10 01:45:00;;;;;;;10.98;9.85;;;11.80;99.90;;;;;;7353497;32;20133;-61
2022/05/10 01:49:20;;;;;;;12.15;9.25;;;11.80;99.90;;;;;;7354652;32;20214;-61
2022/05/10 01:53:33;;;;;;;10.88;9.57;;;11.80;99.90;;;;;;7355759;32;20716;-60
2022/05/10 01:57:40;;;;;;;12.07;9.88;;;11.80;99.90;;;;;;7356083;32;20152;-59
2022/05/10 02:01:42;;;;;;;13.40;10.20;;;11.80;99.90;;;;;;7314249;32;20219;-60
2022/05/10 02:06:16;;;;;;;14.82;10.07;;;11.70;99.90;;;;;;7230561;32;20530;-61
2022/05/10 02:10:25;;;;;;;10.73;9.65;;;11.60;99.90;;;;;;7226365;32;20159;-61
2022/05/10 02:14:36;;;;;;;10.13;8.98;;;11.60;99.90;;;;;;7233735;32;20146;-61
2022/05/10 02:19:09;;;;;;;10.90;9.80;;;11.60;99.90;;;;;;7228749;32;20208;-61
2022/05/10 02:23:20;;;;;;;10.70;9.60;;;11.60;99.90;;;;;;7228278;32;20105;-61
2022/05/10 02:27:29;;;;;;;10.85;9.60;;;11.50;99.90;;;;;;7265206;32;20833;-60
2022/05/10 02:36:29;;;;;;;11.23;10.13;;;11.50;99.90;;;;;;7226073;32;20308;-58
2022/05/10 02:40:32;;;;;;;10.18;9.10;;;11.50;99.90;;;;;;7277062;32;20120;-60
2022/05/10 02:44:33;;;;;;;13.23;9.80;;;11.50;99.90;;;;;;7229835;32;20698;-59
2022/05/10 02:48:36;;;;;;;11.32;9.80;;;11.50;99.90;;;;;;7218991;32;20216;-59
2022/05/10 02:52:39;;;;;;;12.70;10.38;;;11.50;99.90;;;;;;7261394;32;21801;-58
2022/05/10 02:56:42;;;;;;;12.90;9.43;;;11.60;99.90;;;;;;7229065;32;20131;-59
2022/05/10 03:00:45;;;;;;;13.07;9.38;;;11.40;99.90;;;;;;7236675;32;20686;-59
2022/05/10 03:04:53;;;;;;;12.63;9.50;;;11.40;99.90;;;;;;7356140;32;20733;-59
2022/05/10 03:08:57;;;;;;;10.00;8.93;;;11.40;99.90;;;;;;7355869;32;20531;-59
2022/05/10 03:12:59;;;;;;;9.65;8.65;;;11.50;99.90;;;;;;7346281;32;20893;-61
2022/05/10 03:17:03;;;;;;;12.05;8.60;;;11.50;99.90;;;;;;7346071;32;20111;-59
2022/05/10 03:21:05;;;;;;;12.50;8.75;;;11.50;99.90;;;;;;7353133;32;20609;-59
2022/05/10 03:25:07;;;;;;;9.25;8.35;;;11.60;99.90;;;;;;7358589;32;20166;-59
2022/05/10 03:29:10;;;;;;;11.38;9.02;;;11.50;99.90;;;;;;7350646;32;20549;-59
2022/05/10 03:33:12;;;;;;;9.45;8.43;;;11.60;99.90;;;;;;7360753;32;20130;-60
2022/05/10 03:37:13;;;;;;;10.50;8.57;;;11.70;99.90;;;;;;7356066;32;20107;-59
2022/05/10 03:41:15;;;;;;;10.63;9.13;;;11.70;99.90;;;;;;7354809;32;20739;-60
2022/05/10 03:45:19;;;;;;;11.48;8.68;;;11.80;99.90;;;;;;7362726;32;20106;-61
2022/05/10 03:49:21;;;;;;;15.35;8.75;;;11.80;99.90;;;;;;7352205;32;20174;-59
2022/05/10 03:53:22;;;;;;;11.90;8.70;;;11.80;99.90;;;;;;7358188;32;20107;-60
2022/05/10 03:57:24;;;;;;;10.68;8.60;;;11.70;99.90;;;;;;7354671;32;20245;-58
2022/05/10 04:01:27;;;;;;;12.07;8.77;;;11.70;99.90;;;;;;7359288;32;20111;-59
2022/05/10 04:05:29;;;;;;;10.35;8.57;;;11.70;99.90;;;;;;7359255;32;20249;-60
2022/05/10 04:09:31;;;;;;;11.50;9.98;;;11.70;99.90;;;;;;7362695;32;20162;-60
2022/05/10 04:13:33;;;;;;;10.10;8.82;;;11.70;99.90;;;;;;7357204;32;20221;-59
2022/05/10 04:17:35;;;;;;;13.55;8.63;;;11.80;99.90;;;;;;7355904;32;20131;-59
2022/05/10 04:21:37;;;;;;;10.75;8.82;;;11.80;99.90;;;;;;7366410;32;20189;-60
2022/05/10 04:25:38;;;;;;;10.32;8.32;;;11.80;99.90;;;;;;7343485;32;21896;-60
2022/05/10 04:29:40;;;;;;;15.02;9.60;;;11.80;99.90;;;;;;7363302;32;20217;-59
2022/05/10 04:33:42;;;;;;;11.12;9.20;;;11.80;99.90;;;;;;7367168;32;20129;-60
2022/05/10 04:37:44;;;;;;;15.00;8.63;;;11.80;99.90;;;;;;7360232;32;20710;-61
2022/05/10 04:41:53;;;;;;;10.07;7.62;;;11.80;99.90;;;;;;7346742;32;20751;-59
2022/05/10 04:45:54;;;;;;;8.20;7.37;;;11.90;99.90;;;;;;7359042;32;20102;-58
2022/05/10 04:49:56;;;;;;;9.35;7.45;;;11.90;99.90;;;;;;7357265;32;20131;-61
2022/05/10 04:53:58;;;;;;;11.63;8.45;;;11.90;99.90;;;;;;7369136;32;20129;-61
2022/05/10 04:58:00;;;;;;;9.05;8.15;;;11.90;99.90;;;;;;7354660;32;20870;-61
2022/05/10 05:02:02;;;;;;;22.92;18.58;;;12.00;99.90;;;;;;7355330;32;20240;-62
2022/05/10 05:06:10;;;;;;;12.48;9.60;;;12.00;99.90;;;;;;7353995;32;22181;-61
2022/05/10 05:10:12;;;;;;;14.77;8.93;;;12.10;99.90;;;;;;7356450;32;20112;-61
2022/05/10 05:14:13;;;;;;;13.57;8.48;;;12.20;99.90;;;;;;7362529;32;20099;-63
2022/05/10 05:18:15;;;;;;;12.23;10.77;;;12.40;99.90;;;;;;7354779;32;20125;-62
2022/05/10 05:22:17;;;;;;;22.17;18.45;;;12.50;99.90;;;;;;7342850;32;20126;-62
2022/05/10 05:26:18;;;;;;;12.63;11.35;;;12.70;99.90;;;;;;7357018;32;20111;-61
2022/05/10 05:30:20;;;;;;;11.68;9.18;;;12.70;99.90;;;;;;7356284;32;20221;-61
2022/05/10 05:34:22;;;;;;;9.18;8.27;;;12.90;99.90;;;;;;7358937;32;20145;-64
2022/05/10 05:38:26;;;;;;;10.68;8.55;;;13.10;99.90;;;;;;7353518;32;20324;-64
2022/05/10 05:42:28;;;;;;;8.63;7.60;;;13.20;99.90;;;;;;7356854;32;20604;-62
2022/05/10 05:46:30;;;;;;;10.45;7.72;;;13.40;99.90;;;;;;7349318;32;20702;-69
2022/05/10 05:50:32;;;;;;;10.32;7.35;;;13.60;99.90;;;;;;7354838;32;20201;-64
2022/05/10 05:54:34;;;;;;;7.95;6.70;;;13.80;99.90;;;;;;7347806;32;20170;-64
2022/05/10 05:58:36;;;;;;;9.13;6.97;;;14.00;99.90;;;;;;7365584;32;20103;-63
2022/05/10 06:02:38;;;;;;;8.52;5.62;;;14.30;99.90;;;;;;7360274;32;20103;-63
2022/05/10 06:06:40;;;;;;;7.70;5.90;;;14.50;99.90;;;;;;7359501;32;20280;-72
2022/05/10 06:10:42;;;;;;;10.48;6.37;;;14.80;99.90;;;;;;7361365;32;20107;-61
2022/05/10 06:14:45;;;;;;;7.68;6.50;;;15.10;99.90;;;;;;7360670;32;20208;-63
2022/05/10 06:18:46;;;;;;;6.85;5.62;;;15.20;99.90;;;;;;7362128;32;20628;-64
2022/05/10 06:22:48;;;;;;;6.35;5.55;;;15.40;99.90;;;;;;7348059;32;20226;-61
2022/05/10 06:26:51;;;;;;;7.53;5.93;;;15.50;99.90;;;;;;7354750;32;20221;-64
2022/05/10 06:30:53;;;;;;;9.93;6.22;;;15.60;99.90;;;;;;7358299;32;20115;-64
2022/05/10 06:34:55;;;;;;;7.12;5.37;;;15.70;99.90;;;;;;7359808;32;20239;-72
2022/05/10 06:38:57;;;;;;;11.77;5.82;;;15.80;99.90;;;;;;7352507;32;20127;-62
2022/05/10 06:42:59;;;;;;;6.18;5.57;;;16.00;99.90;;;;;;7356009;32;20130;-62
2022/05/10 06:47:01;;;;;;;7.03;5.50;;;16.20;99.90;;;;;;7346066;32;20202;-61
2022/05/10 06:51:07;;;;;;;5.97;5.15;;;16.60;99.90;;;;;;7362189;32;20162;-63
2022/05/10 06:55:10;;;;;;;6.77;5.50;;;17.00;99.90;;;;;;7357766;32;20161;-71
2022/05/10 06:59:12;;;;;;;6.50;5.32;;;17.40;99.90;;;;;;7360763;32;20147;-64
2022/05/10 07:03:16;;;;;;;6.20;4.72;;;17.60;99.90;;;;;;7352826;32;20119;-63
2022/05/10 07:07:18;;;;;;;6.10;4.50;;;17.80;99.90;;;;;;7352648;32;20102;-62
2022/05/10 07:11:19;;;;;;;4.75;4.25;;;18.00;99.90;;;;;;7354108;32;20136;-64
2022/05/10 07:15:21;;;;;;;5.50;4.28;;;18.10;99.90;;;;;;7360555;32;20891;-71
2022/05/10 07:19:23;;;;;;;6.55;4.75;;;18.30;99.90;;;;;;7342851;32;20137;-62
2022/05/10 07:23:30;;;;;;;5.53;4.10;;;18.50;99.90;;;;;;7341831;32;20541;-62
2022/05/10 07:27:39;;;;;;;6.82;4.93;;;18.70;99.90;;;;;;7357476;32;20455;-62
2022/05/10 07:31:41;;;;;;;8.02;4.70;;;19.10;99.90;;;;;;7351971;32;20099;-62
2022/05/10 07:40:03;;;;;;;7.97;4.80;;;20.00;99.90;;;;;;7354800;32;20157;-61
2022/05/10 07:44:06;;;;;;;12.65;4.22;;;20.20;99.90;;;;;;7368073;32;20171;-62
2022/05/10 07:48:08;;;;;;;5.95;4.10;;;20.20;99.90;;;;;;7360429;32;20127;-71
2022/05/10 07:52:10;;;;;;;5.80;4.55;;;20.00;99.90;;;;;;7363253;32;20836;-62
2022/05/10 07:56:11;;;;;;;8.75;4.65;;;20.00;99.90;;;;;;7361662;32;20174;-63
2022/05/10 08:00:27;;;;;;;6.60;4.30;;;20.10;99.90;;;;;;7359795;32;20624;-70
2022/05/10 08:04:28;;;;;;;7.60;4.50;;;20.00;99.90;;;;;;7350758;32;20129;-63
2022/05/10 08:08:33;;;;;;;13.85;4.60;;;20.00;99.90;;;;;;7363627;32;20853;-62
2022/05/10 08:12:35;;;;;;;7.60;4.47;;;20.10;99.90;;;;;;7358447;32;20789;-64
2022/05/10 08:16:37;;;;;;;5.47;3.95;;;20.20;99.90;;;;;;7358283;32;20546;-63
2022/05/10 08:20:43;;;;;;;10.00;4.82;;;20.30;99.90;;;;;;7362671;32;20194;-70
2022/05/10 08:24:45;;;;;;;8.35;3.87;;;20.50;99.90;;;;;;7358296;32;20114;-60
2022/05/10 08:28:46;;;;;;;9.80;4.30;;;20.90;99.90;;;;;;7358912;32;20229;-64
2022/05/10 08:32:48;;;;;;;5.30;4.40;;;21.50;99.90;;;;;;7356355;32;20126;-67
2022/05/10 08:37:10;;;;;;;5.43;3.87;;;22.30;99.90;;;;;;7355116;32;20764;-62
2022/05/10 08:41:19;;;;;;;6.78;4.15;;;23.50;99.90;;;;;;7356335;32;20696;-66
2022/05/10 08:45:24;;;;;;;6.47;3.95;;;24.60;99.90;;;;;;7358238;32;20107;-64
2022/05/10 08:49:36;;;;;;;9.70;3.70;;;25.40;99.90;;;;;;7361782;32;20631;-62
2022/05/10 08:53:39;;;;;;;7.87;4.18;;;25.60;99.90;;;;;;7358577;32;20229;-64
2022/05/10 08:58:05;;;;;;;9.43;4.00;;;25.60;99.90;;;;;;7356781;32;20182;-63
2022/05/10 09:02:30;;;;;;;9.20;4.27;;;26.10;98.90;;;;;;7361909;32;20129;-64
2022/05/10 09:07:13;;;;;;;9.00;4.50;;;25.90;94.90;;;;;;7357598;32;20190;-64
2022/05/10 09:11:16;;;;;;;8.70;5.25;;;25.00;95.10;;;;;;7326739;32;20131;-63
2022/05/10 09:15:19;;;;;;;9.55;4.78;;;24.20;98.20;;;;;;7362167;32;20221;-63
2022/05/10 09:19:31;;;;;;;9.10;4.45;;;23.80;99.90;;;;;;7362080;32;21128;-71
2022/05/10 09:23:46;;;;;;;7.12;4.47;;;23.80;99.90;;;;;;7361892;32;20205;-62
2022/05/10 09:27:50;;;;;;;9.57;4.28;;;24.00;99.90;;;;;;7361682;32;20649;-65
2022/05/10 09:36:27;;;;;;;5.00;3.60;;;24.30;99.90;;;;;;7364388;32;20224;-71
2022/05/10 09:40:35;;;;;;;;;;;24.50;99.90;;;;;;7357325;32;20608;-64
2022/05/10 09:44:37;;;;;;;4.82;3.40;;;24.70;99.90;;;;;;7364042;32;20065;-62
2022/05/10 09:48:42;;;;;;;7.93;3.55;;;25.60;99.80;;;;;;7356424;32;20125;-72
2022/05/10 09:52:45;;;;;;;7.87;3.83;;;26.10;99.60;;;;;;7357260;32;20107;-64
2022/05/10 09:56:53;;;;;;;11.07;3.95;;;25.80;94.20;;;;;;7355341;32;20124;-63
2022/05/10 10:00:56;;;;;;;8.75;3.80;;;25.60;94.60;;;;;;7354114;32;20123;-72
2022/05/10 10:04:58;;;;;;;8.38;3.95;;;25.40;97.30;;;;;;7358097;32;20118;-63
2022/05/10 10:09:00;;;;;;;9.00;3.33;;;25.10;99.90;;;;;;7357289;32;20137;-64
2022/05/10 10:13:37;;;;;;;3.35;2.30;;;25.60;99.90;;;;;;7345809;32;20216;-64
2022/05/10 10:17:38;;;;;;;10.10;2.95;;;25.30;88.00;;;;;;7354825;32;20114;-65
2022/05/10 10:21:47;;;;;;;6.70;2.40;;;24.90;92.70;;;;;;7355950;32;20131;-64
2022/05/10 10:25:52;;;;;;;7.50;2.22;;;24.90;87.00;;;;;;7354536;32;20228;-70
2022/05/10 10:29:58;;;;;;;5.32;2.67;;;24.60;88.50;;;;;;7346713;32;20133;-65
2022/05/10 10:34:18;;;;;;;5.72;2.60;;;24.40;85.90;;;;;;7361212;32;20111;-63
2022/05/10 10:38:40;;;;;;;4.47;2.70;;;24.40;88.30;;;;;;7354742;32;20826;-62
2022/05/10 10:43:11;;;;;;;4.20;2.85;;;24.30;91.00;;;;;;7363578;32;20873;-72
2022/05/10 10:47:36;;;;;;;6.78;2.65;;;24.40;93.10;;;;;;7364446;32;20122;-71
2022/05/10 10:51:38;;;;;;;7.30;2.75;;;24.30;85.30;;;;;;7362454;32;20106;-73
2022/05/10 10:55:43;;;;;;;6.32;2.50;;;24.20;83.60;;;;;;7361734;32;20130;-63
2022/05/10 11:00:00;;;;;;;7.45;2.37;;;24.10;87.00;;;;;;7363570;32;20712;-63
2022/05/10 11:04:21;;;;;;;4.10;2.53;;;24.30;83.00;;;;;;7356638;32;20622;-73
2022/05/10 11:09:04;;;;;;;6.93;2.75;;;24.50;85.10;;;;;;7350867;32;20883;-64
2022/05/10 11:13:47;;;;;;;7.20;2.35;;;24.60;84.40;;;;;;7307493;32;20799;-71
2022/05/10 11:18:17;;;;;;;5.07;2.28;;;24.50;85.60;;;;;;7358207;32;20206;-64
2022/05/10 11:22:38;;;;;;;6.10;2.40;;;24.40;88.60;;;;;;7357266;32;20142;-63
2022/05/10 11:27:24;;;;;;;4.20;2.72;;;24.40;84.30;;;;;;7360764;32;20107;-71
2022/05/10 11:31:50;;;;;;;4.62;2.50;;;24.30;89.80;;;;;;7360534;32;20192;-64
2022/05/10 11:35:57;;;;;;;5.37;2.60;;;24.20;83.80;;;;;;7360308;32;20347;-62
2022/05/10 11:40:09;;;;;;;6.60;2.78;;;24.10;83.40;;;;;;7354290;32;20293;-65
2022/05/10 11:44:25;;;;;;;6.00;2.97;;;24.10;83.50;;;;;;7364052;32;20110;-65
2022/05/10 11:49:01;;;;;;;3.97;2.62;;;24.10;83.70;;;;;;7357992;32;20103;-63
2022/05/10 11:53:47;;;;;;;9.55;2.80;;;24.30;87.80;;;;;;7358548;32;20221;-64
2022/05/10 11:57:54;;;;;;;5.10;2.72;;;24.60;89.20;;;;;;7362032;32;20282;-65
2022/05/10 12:01:58;;;;;;;6.85;2.85;;;25.10;78.80;;;;;;7354883;32;20149;-62
2022/05/10 12:06:22;;;;;;;7.47;3.20;;;25.20;81.40;;;;;;7358858;32;20107;-71
2022/05/10 12:10:30;;;;;;;6.50;2.92;;;25.30;80.20;;;;;;7361723;32;20837;-63
2022/05/10 12:24:13;;;;;;;6.87;3.22;;;25.70;76.30;;;;;;7355593;32;20262;-62
2022/05/10 12:28:47;;;;;;;5.00;2.90;;;25.60;76.30;;;;;;7359925;32;20186;-65
2022/05/10 12:32:49;;;;;;;6.62;3.12;;;25.50;77.50;;;;;;7362433;32;20205;-64
2022/05/10 12:36:51;;;;;;;5.22;3.00;;;25.60;75.30;;;;;;7354032;32;20435;-63
2022/05/10 12:41:05;;;;;;;7.25;3.25;;;25.30;79.00;;;;;;7357578;32;20221;-69
2022/05/10 12:45:28;;;;;;;5.43;3.37;;;25.50;77.10;;;;;;7355257;32;20829;-62
2022/05/10 12:49:45;;;;;;;8.98;3.45;;;25.60;75.30;;;;;;7360443;32;20702;-63
2022/05/10 12:53:53;;;;;;;;;;;25.40;75.50;;;;;;7359775;32;20286;-61
2022/05/10 12:58:14;;;;;;;5.78;3.40;;;25.20;78.30;;;;;;7367555;32;20073;-70
2022/05/10 13:02:15;;;;;;;7.78;2.87;;;25.00;80.10;;;;;;7371028;32;20134;-68
2022/05/10 13:06:20;;;;;;;8.07;3.08;;;24.80;77.40;;;;;;7364715;32;20209;-62
2022/05/10 13:10:23;;;;;;;5.18;3.35;;;24.60;78.30;;;;;;7359478;32;20212;-62
2022/05/10 13:14:26;;;;;;;8.75;3.83;;;24.60;80.20;;;;;;7363146;32;20217;-62
2022/05/10 13:18:29;;;;;;;7.03;3.85;;;24.60;81.40;;;;;;7362353;32;20148;-61
2022/05/10 13:22:32;;;;;;;17.60;15.45;;;24.60;84.00;;;;;;7356671;32;20102;-68
2022/05/10 13:26:34;;;;;;;9.40;3.87;;;24.70;81.90;;;;;;7359930;32;20216;-64
2022/05/10 13:30:38;;;;;;;8.05;3.55;;;24.70;82.20;;;;;;7359118;32;20126;-70
2022/05/10 13:34:49;;;;;;;8.15;3.47;;;24.80;84.40;;;;;;7360921;32;20187;-65
2022/05/10 13:38:55;;;;;;;8.98;3.50;;;24.70;79.20;;;;;;7355465;32;20107;-64
2022/05/10 13:43:31;;;;;;;4.78;3.33;;;24.70;82.70;;;;;;7364681;32;20257;-63
2022/05/10 13:47:32;;;;;;;6.40;3.35;;;24.80;79.50;;;;;;7362493;32;20190;-64
2022/05/10 13:51:44;;;;;;;6.97;3.30;;;24.70;84.90;;;;;;7355709;32;20175;-64
2022/05/10 13:55:55;;;;;;;8.38;3.42;;;25.10;80.00;;;;;;7354857;32;20240;-65
2022/05/10 14:00:04;;;;;;;9.75;2.90;;;25.30;81.10;;;;;;7351948;32;20319;-64
2022/05/10 14:04:10;;;;;;;7.72;3.50;;;25.20;81.00;;;;;;7354198;32;22206;-65
2022/05/10 14:08:26;;;;;;;10.60;3.10;;;25.00;78.30;;;;;;7357610;32;20187;-61
2022/05/10 14:12:36;;;;;;;12.15;3.40;;;24.90;79.50;;;;;;7356736;32;20111;-63
2022/05/10 14:16:39;;;;;;;9.18;3.10;;;24.80;82.70;;;;;;7352265;32;20164;-68
2022/05/10 14:20:47;;;;;;;6.55;3.10;;;24.70;79.60;;;;;;7358155;32;20122;-64
2022/05/10 14:24:49;;;;;;;13.77;3.28;;;24.70;79.90;;;;;;7354883;32;20114;-63
2022/05/10 14:28:55;;;;;;;7.68;3.25;;;24.70;80.80;;;;;;7355257;32;20179;-63
2022/05/10 14:32:57;;;;;;;5.05;3.00;;;24.70;78.00;;;;;;7354434;32;20135;-63
2022/05/10 14:36:58;;;;;;;10.55;3.20;;;24.70;74.20;;;;;;7357203;32;20118;-71
2022/05/10 14:41:01;;;;;;;5.93;3.08;;;24.70;76.40;;;;;;7354866;32;20201;-63
2022/05/10 14:45:30;;;;;;;7.32;2.97;;;24.80;76.20;;;;;;7350781;32;20190;-62
2022/05/10 14:49:37;;;;;;;5.80;2.75;;;24.70;72.70;;;;;;7350938;32;21360;-63
2022/05/10 14:53:51;;;;;;;5.78;2.95;;;24.80;75.00;;;;;;7354638;32;20198;-65
2022/05/10 14:57:58;;;;;;;6.80;2.80;;;25.30;71.40;;;;;;7337726;32;20110;-64
2022/05/10 15:01:59;;;;;;;5.47;2.73;;;25.30;72.40;;;;;;7354782;32;20118;-65
2022/05/10 15:06:02;;;;;;;8.18;3.55;;;24.90;74.50;;;;;;7339040;32;20111;-65
2022/05/10 15:10:04;;;;;;;5.80;2.80;;;24.90;72.30;;;;;;7344297;32;20209;-63
2022/05/10 15:14:14;;;;;;;8.82;3.15;;;24.70;74.00;;;;;;7347948;32;20182;-72
2022/05/10 15:22:41;;;;;;;5.87;2.70;;;24.60;74.50;;;;;;7349781;32;20604;-65
2022/05/10 15:26:47;;;;;;;7.60;3.00;;;24.60;74.90;;;;;;7355899;32;20212;-62
2022/05/10 15:30:49;;;;;;;5.22;2.75;;;24.70;74.40;;;;;;7358633;32;20129;-63
2022/05/10 15:34:52;;;;;;;5.62;2.87;;;24.70;76.40;;;;;;7353212;32;20111;-63
2022/05/10 15:38:54;;;;;;;9.07;2.60;;;24.90;76.90;;;;;;7351855;32;20133;-70
2022/05/10 15:42:58;;;;;;;5.15;3.12;;;24.80;75.10;;;;;;7359719;32;20378;-63
2022/05/10 15:47:02;;;;;;;10.65;3.12;;;24.80;74.30;;;;;;7357369;32;20103;-63
2022/05/10 15:51:04;;;;;;;10.95;3.08;;;24.70;75.40;;;;;;7360456;32;20115;-63
2022/05/10 15:55:07;;;;;;;4.82;2.87;;;24.70;75.70;;;;;;7336613;32;20111;-63
2022/05/10 15:59:10;;;;;;;5.12;2.70;;;24.60;74.70;;;;;;7352146;32;20221;-71
2022/05/10 16:03:12;;;;;;;8.55;2.80;;;24.50;77.10;;;;;;7357643;32;20164;-63
2022/05/10 16:07:15;;;;;;;4.32;3.00;;;24.40;75.00;;;;;;7363521;32;20652;-62
2022/05/10 16:11:17;;;;;;;9.75;2.83;;;24.50;76.50;;;;;;7347976;32;20134;-62
2022/05/10 16:15:19;;;;;;;3.72;2.37;;;24.40;75.20;;;;;;7365768;32;20507;-65
2022/05/10 16:19:21;;;;;;;5.87;2.42;;;24.40;76.80;;;;;;7368354;32;20505;-63
2022/05/10 16:23:23;;;;;;;4.50;2.58;;;24.30;76.00;;;;;;7366457;32;20558;-64
2022/05/10 16:31:45;;;;;;;3.75;2.85;;;24.20;77.80;;;;;;7366982;32;20106;-64
2022/05/10 16:35:47;;;;;;;7.53;3.35;;;24.30;77.40;;;;;;7371844;32;20149;-63
2022/05/10 16:39:53;;;;;;;4.73;2.70;;;24.40;77.10;;;;;;7358500;32;20220;-63
2022/05/10 16:43:55;;;;;;;8.50;2.90;;;24.30;76.50;;;;;;7370847;32;20106;-64
2022/05/10 16:47:57;;;;;;;3.25;2.45;;;24.20;77.00;;;;;;7358145;32;20468;-64
2022/05/10 16:52:00;;;;;;;5.68;2.83;;;24.20;75.60;;;;;;7357224;32;20557;-64
2022/05/10 16:56:04;;;;;;;4.15;2.85;;;24.10;75.50;;;;;;7353043;32;20197;-63
2022/05/10 17:00:12;;;;;;;5.28;2.87;;;23.90;76.50;;;;;;7340402;32;20133;-70
2022/05/10 17:04:14;;;;;;;6.18;2.75;;;23.80;77.90;;;;;;7361195;32;20492;-63
2022/05/10 17:08:20;;;;;;;6.97;3.40;;;23.70;77.80;;;;;;7370030;32;20099;-59
2022/05/10 17:12:22;;;;;;;7.50;3.05;;;23.70;80.20;;;;;;7347129;32;20126;-71
2022/05/10 17:16:34;;;;;;;6.55;3.37;;;23.60;79.20;;;;;;7355660;32;20896;-63
2022/05/10 17:20:36;;;;;;;8.95;3.17;;;23.60;78.90;;;;;;7365212;32;20215;-63
2022/05/10 17:24:38;;;;;;;4.15;2.80;;;23.60;77.90;;;;;;7365846;32;20194;-62
2022/05/10 17:28:55;;;;;;;3.95;2.83;;;23.70;79.60;;;;;;7340633;32;20218;-63
2022/05/10 17:33:00;;;;;;;7.50;3.00;;;23.60;79.20;;;;;;7367283;32;20228;-63
2022/05/10 17:37:02;;;;;;;5.25;3.10;;;23.50;80.80;;;;;;7348267;32;20123;-64
2022/05/10 17:41:05;;;;;;;5.80;2.55;;;23.40;80.30;;;;;;7356289;32;20194;-65
2022/05/10 17:45:08;;;;;;;5.70;3.25;;;23.50;80.20;;;;;;7360879;32;20125;-73
2022/05/10 17:49:12;;;;;;;5.35;2.75;;;23.20;82.20;;;;;;7359548;32;20107;-63
2022/05/10 17:53:14;;;;;;;5.87;2.75;;;23.20;84.90;;;;;;7343992;32;20267;-64
2022/05/10 17:57:15;;;;;;;6.68;3.10;;;23.10;83.90;;;;;;7350646;32;20202;-64
2022/05/10 18:01:21;;;;;;;3.97;2.72;;;23.10;83.80;;;;;;7359643;32;20134;-65
2022/05/10 18:05:24;;;;;;;5.18;2.90;;;23.10;83.40;;;;;;7347328;32;20110;-72
2022/05/10 18:09:26;;;;;;;4.30;2.70;;;23.10;84.00;;;;;;7352136;32;20119;-59
2022/05/10 18:13:28;;;;;;;6.72;2.90;;;23.00;85.10;;;;;;7351569;32;20682;-61
2022/05/10 18:17:29;;;;;;;7.55;3.20;;;23.10;86.80;;;;;;7356438;32;20440;-61
2022/05/10 18:21:31;;;;;;;12.30;3.10;;;22.90;86.90;;;;;;7348434;32;20107;-62
2022/05/10 18:25:33;;;;;;;5.20;2.97;;;22.80;87.80;;;;;;7348257;32;20343;-71
2022/05/10 18:29:37;;;;;;;4.93;2.80;;;22.70;89.60;;;;;;7362405;32;20130;-64
2022/05/10 18:33:39;;;;;;;8.15;2.90;;;22.60;89.50;;;;;;7361325;32;20218;-65
2022/05/10 18:37:41;;;;;;;5.70;3.42;;;22.50;90.20;;;;;;7354318;32;20087;-63
2022/05/10 18:41:43;;;;;;;9.98;3.25;;;22.30;90.70;;;;;;7345392;32;20164;-63
2022/05/10 18:45:44;;;;;;;7.62;3.33;;;22.20;91.40;;;;;;7360639;32;20553;-65
2022/05/10 18:49:46;;;;;;;6.30;2.80;;;22.30;92.10;;;;;;7342286;32;20119;-63
2022/05/10 18:53:48;;;;;;;7.47;3.10;;;22.10;92.80;;;;;;7361354;32;20145;-64
2022/05/10 18:57:55;;;;;;;5.40;2.78;;;22.10;92.90;;;;;;7348651;32;20848;-63
2022/05/10 19:01:57;;;;;;;3.67;2.80;;;22.00;94.10;;;;;;7363717;32;20553;-64
2022/05/10 19:05:58;;;;;;;5.68;3.10;;;21.90;94.40;;;;;;7362307;32;20111;-62
2022/05/10 19:10:00;;;;;;;7.18;3.83;;;21.70;96.40;;;;;;7334791;32;20206;-62
2022/05/10 19:14:02;;;;;;;7.50;3.45;;;21.50;98.10;;;;;;7343929;32;20284;-64
2022/05/10 19:18:05;;;;;;;5.62;3.47;;;21.40;98.40;;;;;;7340106;32;20255;-65
2022/05/10 19:22:10;;;;;;;5.30;3.58;;;21.30;98.60;;;;;;7347552;32;20118;-61
2022/05/10 19:26:15;;;;;;;5.78;3.20;;;21.10;99.90;;;;;;7351710;32;20212;-61
2022/05/10 19:30:23;;;;;;;5.85;3.08;;;20.90;99.90;;;;;;7363907;32;20217;-64
2022/05/10 19:34:25;;;;;;;8.10;3.35;;;20.80;99.90;;;;;;7344459;32;20138;-65
2022/05/10 19:38:27;;;;;;;10.32;3.80;;;20.80;99.90;;;;;;7367124;32;20130;-65
2022/05/10 19:42:29;;;;;;;7.87;3.40;;;20.70;99.90;;;;;;7368023;32;20186;-64
2022/05/10 19:46:32;;;;;;;6.07;4.03;;;20.60;99.90;;;;;;7368211;32;20251;-63
2022/05/10 19:50:37;;;;;;;5.62;3.65;;;20.50;99.90;;;;;;7364705;32;20115;-64
2022/05/10 19:54:39;;;;;;;15.95;4.78;;;20.40;99.90;;;;;;7365083;32;20102;-62
2022/05/10 19:58:41;;;;;;;8.80;5.32;;;20.30;99.90;;;;;;7348723;32;20131;-65
2022/05/10 20:07:05;;;;;;;9.65;5.30;;;20.10;99.90;;;;;;7233519;32;20230;-63
2022/05/10 20:11:07;;;;;;;10.30;4.65;;;19.90;99.90;;;;;;7234560;32;20105;-63
2022/05/10 20:15:09;;;;;;;9.63;4.40;;;19.70;99.90;;;;;;7275840;32;20577;-63
2022/05/10 20:19:12;;;;;;;7.57;4.30;;;19.60;99.90;;;;;;7242340;32;20515;-63
2022/05/10 20:23:16;;;;;;;13.45;4.93;;;19.50;99.90;;;;;;7237492;32;20227;-65
2022/05/10 20:27:17;;;;;;;9.18;5.20;;;19.20;99.90;;;;;;7232879;32;20112;-63
2022/05/10 20:31:19;;;;;;;12.57;5.20;;;18.80;99.90;;;;;;7269289;32;20406;-63
2022/05/10 20:35:23;;;;;;;11.73;8.23;;;18.70;99.90;;;;;;7234044;32;20181;-63
2022/05/10 20:39:25;;;;;;;7.55;4.75;;;18.40;99.90;;;;;;7279637;32;20212;-64
2022/05/10 20:43:26;;;;;;;12.10;4.62;;;18.20;99.90;;;;;;7272541;32;20291;-63
2022/05/10 20:47:28;;;;;;;8.30;4.25;;;18.00;99.90;;;;;;7234141;32;20113;-63
2022/05/10 20:51:30;;;;;;;10.50;4.87;;;17.90;99.90;;;;;;7234737;32;20144;-63
2022/05/10 20:55:33;;;;;;;7.97;4.87;;;17.80;99.90;;;;;;7231297;32;20533;-65
2022/05/10 20:59:36;;;;;;;6.97;4.47;;;17.60;99.90;;;;;;7235656;32;20208;-63
2022/05/10 21:03:37;;;;;;;9.40;5.30;;;17.50;99.90;;;;;;7329205;32;20130;-64
2022/05/10 21:12:00;;;;;;;10.00;4.95;;;17.30;99.90;;;;;;7356315;32;20125;-64
2022/05/10 21:16:02;;;;;;;9.50;4.75;;;17.20;99.90;;;;;;7340623;32;20126;-64
2022/05/10 21:20:06;;;;;;;10.90;4.10;;;17.10;99.90;;;;;;7345625;32;20182;-60
2022/05/10 21:24:09;;;;;;;7.97;3.92;;;17.10;99.90;;;;;;7345922;32;20540;-61
2022/05/10 21:28:11;;;;;;;10.60;4.20;;;17.10;99.90;;;;;;7367589;32;20225;-60
2022/05/10 21:32:12;;;;;;;10.95;4.32;;;17.00;99.90;;;;;;7357958;32;20229;-60
2022/05/10 21:36:14;;;;;;;6.18;4.30;;;17.00;99.90;;;;;;7355764;32;20210;-63
2022/05/10 21:40:16;;;;;;;6.70;3.70;;;17.00;99.90;;;;;;7349432;32;20119;-62
2022/05/10 21:44:18;;;;;;;7.28;3.37;;;16.90;99.90;;;;;;7367492;32;20107;-62
2022/05/10 21:48:22;;;;;;;7.07;2.87;;;16.90;99.90;;;;;;7358414;32;20154;-63
2022/05/10 21:52:23;;;;;;;7.62;3.60;;;16.80;99.90;;;;;;7356433;32;20245;-61
2022/05/10 21:56:27;;;;;;;7.55;3.90;;;16.80;99.90;;;;;;7347972;32;20197;-62
2022/05/10 22:00:34;;;;;;;7.68;3.75;;;16.70;99.90;;;;;;7353540;32;20107;-61
2022/05/10 22:04:36;;;;;;;;;;;16.60;99.90;;;;;;7357401;32;20198;-62